createdAt,value
2018-05-07T00:00:35.582Z,3.27
2018-05-07T00:05:40.891Z,3.10
2018-05-07T00:10:46.499Z,3.50
2018-05-07T00:15:52.454Z,2.60
2018-05-07T00:21:02.673Z,3.17
2018-05-07T00:26:08.620Z,3.20
2018-05-07T00:31:14.796Z,3.40
2018-05-07T00:36:20.795Z,2.97
2018-05-07T00:41:25.047Z,2.93
2018-05-07T00:46:31.505Z,2.80
2018-05-07T00:51:38.797Z,3.40
2018-05-07T00:56:42.622Z,3.53
2018-05-07T01:01:50.403Z,3.40
2018-05-07T01:06:55.839Z,3.03
2018-05-07T01:12:02.408Z,4.07
2018-05-07T01:17:06.880Z,3.50
2018-05-07T01:22:12.643Z,3.43
2018-05-07T01:27:18.004Z,3.47
2018-05-07T01:32:23.398Z,3.23
2018-05-07T01:37:29.296Z,2.90
2018-05-07T01:42:34.307Z,3.63
2018-05-07T01:47:40.352Z,3.37
2018-05-07T01:52:46.804Z,3.67
2018-05-07T01:57:52.570Z,2.83
2018-05-07T02:02:58.270Z,3.80
2018-05-07T02:08:03.379Z,3.50
2018-05-07T02:13:13.580Z,3.57
2018-05-07T02:18:19.031Z,3.50
2018-05-07T02:23:34.104Z,3.53
2018-05-07T02:28:39.241Z,3.93
2018-05-07T02:33:43.103Z,2.90
2018-05-07T02:38:48.445Z,3.33
2018-05-07T02:43:54.262Z,3.90
2018-05-07T02:49:02.818Z,4.07
2018-05-07T02:54:09.126Z,3.27
2018-05-07T02:59:16.491Z,3.60
2018-05-07T03:04:24.593Z,3.40
2018-05-07T03:09:30.526Z,3.37
2018-05-07T03:14:39.461Z,3.40
2018-05-07T03:19:56.850Z,3.40
2018-05-07T03:25:02.837Z,3.50
2018-05-07T03:30:11.957Z,3.10
2018-05-07T03:35:17.831Z,3.03
2018-05-07T03:40:25.275Z,3.33
2018-05-07T03:45:30.082Z,3.53
2018-05-07T03:50:35.599Z,3.27
2018-05-07T03:55:46.485Z,3.33
2018-05-07T04:00:51.306Z,3.90
2018-05-07T04:05:57.099Z,4.13
2018-05-07T04:11:12.188Z,3.50
2018-05-07T04:32:26.415Z,3.40
2018-05-07T04:37:32.863Z,3.67
2018-05-07T04:42:38.250Z,3.60
2018-05-07T04:47:41.665Z,3.60
2018-05-07T04:52:47.573Z,3.50
2018-05-07T04:57:53.083Z,4.50
2018-05-07T05:03:00.435Z,3.57
2018-05-07T05:08:05.468Z,3.37
2018-05-07T05:13:11.767Z,3.63
2018-05-07T05:18:22.186Z,2.80
2018-05-07T05:23:27.989Z,4.10
2018-05-07T05:28:35.139Z,3.93
2018-05-07T05:33:44.954Z,3.70
2018-05-07T05:38:51.596Z,3.83
2018-05-07T05:43:58.552Z,3.50
2018-05-07T05:49:03.512Z,3.77
2018-05-07T05:54:11.362Z,3.70
2018-05-07T05:59:17.443Z,3.80
2018-05-07T06:04:24.531Z,3.07
2018-05-07T06:09:31.029Z,3.43
2018-05-07T06:14:36.863Z,3.67
2018-05-07T06:19:44.644Z,3.50
2018-05-07T06:24:50.345Z,3.73
2018-05-07T06:29:56.570Z,2.93
2018-05-07T06:35:03.106Z,3.87
2018-05-07T06:40:10.697Z,3.00
2018-05-07T06:45:16.699Z,3.57
2018-05-07T06:50:22.959Z,3.20
2018-05-07T06:55:28.767Z,3.73
2018-05-07T07:00:35.659Z,4.33
2018-05-07T07:05:42.789Z,3.87
2018-05-07T07:10:51.342Z,3.73
2018-05-07T07:15:56.726Z,3.80
2018-05-07T07:21:04.824Z,4.07
2018-05-07T07:26:12.365Z,3.20
2018-05-07T07:31:19.498Z,3.17
2018-05-07T07:36:25.577Z,3.00
2018-05-07T07:41:31.857Z,3.30
2018-05-07T07:46:38.793Z,3.40
2018-05-07T07:51:46.736Z,3.87
2018-05-07T07:56:52.316Z,3.50
2018-05-07T08:01:59.788Z,3.00
2018-05-07T08:07:05.115Z,3.37
2018-05-07T08:12:11.565Z,3.30
2018-05-07T08:17:18.531Z,3.53
2018-05-07T08:22:24.524Z,3.27
2018-05-07T08:27:29.967Z,3.40
2018-05-07T08:32:34.897Z,3.33
2018-05-07T08:37:39.768Z,3.63
2018-05-07T08:42:41.426Z,3.43
2018-05-07T08:47:45.787Z,3.30
2018-05-07T08:52:49.696Z,3.40
2018-05-07T08:57:53.998Z,3.93
2018-05-07T09:02:56.682Z,3.90
2018-05-07T09:08:00.598Z,3.10
2018-05-07T09:13:03.906Z,3.90
2018-05-07T09:18:07.848Z,3.30
2018-05-07T09:23:12.752Z,3.77
2018-05-07T09:28:16.222Z,3.87
2018-05-07T09:33:19.289Z,3.13
2018-05-07T09:38:22.590Z,3.83
2018-05-07T09:43:25.482Z,4.10
2018-05-07T09:48:28.188Z,3.53
2018-05-07T09:53:34.650Z,3.20
2018-05-07T09:58:56.672Z,2.80
2018-05-07T10:04:01.333Z,3.00
2018-05-07T10:09:05.040Z,2.97
2018-05-07T10:14:09.184Z,3.53
2018-05-07T10:19:13.878Z,3.30
2018-05-07T10:24:18.877Z,3.60
2018-05-07T10:29:21.910Z,3.50
2018-05-07T10:34:25.371Z,3.40
2018-05-07T10:39:28.852Z,3.07
2018-05-07T10:44:32.050Z,3.30
2018-05-07T10:49:36.789Z,3.70
2018-05-07T10:54:42.136Z,3.37
2018-05-07T10:59:45.231Z,3.13
2018-05-07T11:04:49.745Z,3.57
2018-05-07T11:09:52.399Z,3.50
2018-05-07T11:14:56.724Z,2.90
2018-05-07T11:19:59.498Z,3.00
2018-05-07T11:25:03.469Z,3.50
2018-05-07T11:30:06.961Z,3.33
2018-05-07T11:35:11.818Z,3.60
2018-05-07T11:40:13.656Z,2.87
2018-05-07T11:45:16.861Z,2.80
2018-05-07T11:50:19.858Z,2.90
2018-05-07T11:55:23.288Z,3.27
2018-05-07T12:00:25.982Z,2.70
2018-05-07T12:05:30.387Z,2.80
2018-05-07T12:10:35.111Z,3.07
2018-05-07T12:15:41.836Z,2.90
2018-05-07T12:20:46.353Z,3.17
2018-05-07T12:25:54.331Z,2.70
2018-05-07T12:31:01.296Z,3.13
2018-05-07T12:36:06.491Z,2.80
2018-05-07T12:41:12.941Z,3.30
2018-05-07T12:46:19.729Z,3.70
2018-05-07T12:51:27.917Z,3.73
2018-05-07T12:56:35.598Z,4.17
2018-05-07T13:01:41.460Z,3.40
2018-05-07T13:06:51.814Z,3.77
2018-05-07T13:11:59.307Z,3.00
2018-05-07T13:17:04.239Z,3.60
2018-05-07T13:22:10.936Z,2.90
2018-05-07T13:27:22.809Z,3.53
2018-05-07T13:32:33.527Z,3.53
2018-05-07T13:37:41.551Z,3.73
2018-05-07T13:42:47.746Z,3.57
2018-05-07T13:47:54.736Z,2.90
2018-05-07T13:53:01.377Z,3.50
2018-05-07T13:58:07.698Z,3.30
2018-05-07T14:03:13.084Z,2.87
2018-05-07T14:08:22.584Z,2.93
2018-05-07T14:13:27.160Z,3.20
2018-05-07T14:18:32.343Z,2.90
2018-05-07T14:23:38.788Z,2.23
2018-05-07T14:28:45.187Z,2.90
2018-05-07T14:33:55.551Z,2.50
2018-05-07T14:39:06.754Z,2.93
2018-05-07T14:44:13.126Z,2.53
2018-05-07T14:49:19.743Z,3.37
2018-05-07T14:54:27.464Z,2.60
2018-05-07T14:59:29.118Z,2.80
2018-05-07T15:04:35.867Z,2.43
2018-05-07T15:09:42.827Z,2.93
2018-05-07T15:14:49.182Z,2.47
2018-05-07T15:19:56.347Z,2.77
2018-05-07T15:30:21.779Z,2.67
2018-05-07T15:35:32.848Z,2.30
2018-05-07T15:40:42.429Z,2.20
2018-05-07T15:45:52.370Z,2.57
2018-05-07T15:50:58.497Z,2.33
2018-05-07T15:56:05.955Z,2.53
2018-05-07T16:01:11.586Z,2.40
2018-05-07T16:06:19.159Z,2.50
2018-05-07T16:11:26.524Z,3.10
2018-05-07T16:16:32.727Z,2.87
2018-05-07T16:21:39.604Z,2.83
2018-05-07T16:26:47.248Z,2.63
2018-05-07T16:31:55.346Z,3.27
2018-05-07T16:37:02.221Z,3.10
2018-05-07T16:42:08.898Z,3.00
2018-05-07T16:47:10.676Z,2.80
2018-05-07T16:52:19.418Z,3.27
2018-05-07T16:57:28.119Z,2.90
2018-05-07T17:02:35.977Z,2.80
2018-05-07T17:07:43.316Z,3.13
2018-05-07T17:12:49.821Z,3.13
2018-05-07T17:17:56.893Z,3.63
2018-05-07T17:23:02.492Z,3.30
2018-05-07T17:28:08.277Z,4.03
2018-05-07T17:33:14.612Z,2.60
2018-05-07T17:38:20.807Z,3.57
2018-05-07T17:43:26.373Z,3.33
2018-05-07T17:48:48.211Z,2.90
2018-05-07T17:53:55.653Z,2.47
2018-05-07T17:59:02.110Z,2.77
2018-05-07T18:04:12.123Z,3.93
2018-05-07T18:09:13.928Z,2.60
2018-05-07T18:14:20.124Z,3.07
2018-05-07T18:19:26.088Z,3.07
2018-05-07T18:24:33.197Z,4.03
2018-05-07T18:29:45.424Z,2.97
2018-05-07T18:34:52.873Z,2.90
2018-05-07T18:39:59.833Z,5.27
2018-05-07T18:45:10.808Z,3.40
2018-05-07T18:50:19.997Z,3.00
2018-05-07T18:55:28.895Z,3.90
2018-05-07T19:00:39.199Z,3.20
2018-05-07T19:05:47.773Z,3.20
2018-05-07T19:10:54.620Z,4.17
2018-05-07T19:16:04.696Z,3.40
2018-05-07T19:21:11.541Z,3.70
2018-05-07T19:26:16.596Z,4.10
2018-05-07T19:31:23.728Z,4.17
2018-05-07T19:36:31.655Z,4.17
2018-05-07T19:41:40.263Z,4.23
2018-05-07T19:46:44.759Z,4.03
2018-05-07T19:51:50.722Z,4.00
2018-05-07T19:57:00.878Z,4.17
2018-05-07T20:02:08.236Z,4.10
2018-05-07T20:07:14.623Z,4.20
2018-05-07T20:12:22.681Z,4.37
2018-05-07T20:17:28.152Z,4.00
2018-05-07T20:22:36.554Z,4.37
2018-05-07T20:27:45.923Z,4.43
2018-05-07T20:32:47.951Z,4.20
2018-05-07T20:37:53.381Z,4.70
2018-05-07T20:43:00.663Z,4.13
2018-05-07T20:48:07.479Z,4.57
2018-05-07T20:53:13.240Z,4.60
2018-05-07T20:58:20.444Z,4.03
2018-05-07T21:03:25.776Z,5.33
2018-05-07T21:08:32.692Z,4.83
2018-05-07T21:13:43.484Z,5.10
2018-05-07T21:18:48.640Z,4.70
2018-05-07T21:23:58.255Z,5.53
2018-05-07T21:29:01.637Z,4.33
2018-05-07T21:34:06.329Z,5.17
2018-05-07T21:39:10.267Z,4.67
2018-05-07T21:44:14.143Z,5.40
2018-05-07T21:49:18.303Z,5.20
2018-05-07T21:54:22.513Z,6.10
2018-05-07T21:59:26.536Z,5.10
2018-05-07T22:04:30.723Z,4.90
2018-05-07T22:09:34.610Z,5.20
2018-05-07T22:14:39.303Z,4.40
2018-05-07T22:19:42.388Z,5.77
2018-05-07T22:24:46.328Z,4.70
2018-05-07T22:29:50.327Z,4.67
2018-05-07T22:34:54.223Z,4.80
2018-05-07T22:39:58.065Z,4.70
2018-05-07T22:45:02.527Z,4.80
2018-05-07T22:50:07.380Z,4.43
2018-05-07T22:55:20.444Z,4.67
2018-05-07T23:00:23.951Z,4.80
2018-05-07T23:05:27.136Z,6.03
2018-05-07T23:10:30.903Z,5.10
2018-05-07T23:15:36.442Z,4.77
2018-05-07T23:20:43.067Z,4.70
2018-05-07T23:25:44.631Z,4.43
2018-05-07T23:30:46.205Z,5.50
2018-05-07T23:35:47.789Z,4.63
2018-05-07T23:40:49.336Z,4.50
2018-05-07T23:45:53.815Z,4.53
2018-05-07T23:50:58.311Z,4.30
2018-05-07T23:56:03.390Z,4.40
